Time;durP1;ratioP1;P1;durP2;ratioP2;P2;SDS_P1;SDS_P2;PMS_P1;PMS_P2;Temp;Humidity;BMP_temperature;BMP_pressure;BME280_temperature;BME280_humidity;BME280_pressure;Samples;Min_cycle;Max_cycle;Signal;HPM_P1;HPM_P2
2023/06/06 00:01:31;;;;;;;2.25;2.15;;;;;;;;;;5200860;22;20210;-59
2023/06/06 00:03:52;;;;;;;2.90;1.92;;;;;;;;;;5200992;22;20061;-59
2023/06/06 00:06:13;;;;;;;1.98;1.80;;;;;;;;;;5201103;22;20023;-59
2023/06/06 00:08:35;;;;;;;3.22;1.85;;;;;;;;;;5200987;22;20027;-59
2023/06/06 00:10:55;;;;;;;2.40;2.22;;;;;;;;;;5200942;22;20062;-59
2023/06/06 00:13:18;;;;;;;1.60;1.50;;;;;;;;;;5201466;22;20061;-58
2023/06/06 00:15:38;;;;;;;2.28;2.17;;;;;;;;;;5201892;22;20031;-58
2023/06/06 00:17:59;;;;;;;2.70;2.50;;;;;;;;;;5201957;22;20026;-59
2023/06/06 00:20:20;;;;;;;3.70;2.10;;;;;;;;;;5202157;22;20046;-59
2023/06/06 00:22:41;;;;;;;3.05;2.00;;;;;;;;;;5202035;22;20223;-59
2023/06/06 00:25:03;;;;;;;2.47;2.17;;;;;;;;;;5201820;22;20023;-59
2023/06/06 00:27:23;;;;;;;1.88;1.88;;;;;;;;;;5202059;22;20023;-58
2023/06/06 00:29:43;;;;;;;2.30;2.15;;;;;;;;;;5202057;22;20026;-58
2023/06/06 00:32:04;;;;;;;2.53;2.38;;;;;;;;;;5201933;22;20022;-58
2023/06/06 00:34:24;;;;;;;2.15;2.00;;;;;;;;;;5201968;22;20027;-59
2023/06/06 00:36:44;;;;;;;3.33;3.03;;;;;;;;;;5201938;22;20023;-59
2023/06/06 00:39:04;;;;;;;2.53;2.40;;;;;;;;;;5201848;22;20026;-59
2023/06/06 00:41:25;;;;;;;2.83;2.58;;;;;;;;;;5201792;22;20210;-58
2023/06/06 00:43:46;;;;;;;2.90;2.58;;;;;;;;;;5202021;22;20110;-59
2023/06/06 00:46:07;;;;;;;4.05;2.95;;;;;;;;;;5201851;22;20210;-59
2023/06/06 00:48:27;;;;;;;4.07;2.63;;;;;;;;;;5201799;22;20038;-58
2023/06/06 00:50:48;;;;;;;2.65;2.55;;;;;;;;;;5201941;22;20215;-58
2023/06/06 00:53:08;;;;;;;2.67;2.55;;;;;;;;;;5201892;22;20023;-59
2023/06/06 00:55:29;;;;;;;2.05;1.95;;;;;;;;;;5201705;22;20027;-59
2023/06/06 00:57:51;;;;;;;2.25;1.98;;;;;;;;;;5201836;22;20345;-58
2023/06/06 01:00:12;;;;;;;5.22;3.20;;;;;;;;;;5202448;22;20023;-59
2023/06/06 01:02:37;;;;;;;5.63;2.50;;;;;;;;;;5200027;22;20027;-77
2023/06/06 01:05:00;;;;;;;2.70;2.45;;;;;;;;;;5201665;22;20372;-78
2023/06/06 01:07:21;;;;;;;2.33;2.20;;;;;;;;;;5178908;22;20027;-77
2023/06/06 01:09:41;;;;;;;2.97;2.22;;;;;;;;;;5201648;22;20292;-78
2023/06/06 01:12:02;;;;;;;2.13;1.98;;;;;;;;;;5178854;22;20082;-78
2023/06/06 01:14:27;;;;;;;6.85;1.88;;;;;;;;;;5210170;22;20058;-77
2023/06/06 01:16:49;;;;;;;2.83;2.65;;;;;;;;;;5178831;22;20323;-78
2023/06/06 01:19:16;;;;;;;2.30;2.10;;;;;;;;;;5178936;22;20058;-78
2023/06/06 01:21:41;;;;;;;2.28;2.17;;;;;;;;;;5187397;22;20034;-77
2023/06/06 01:24:02;;;;;;;7.13;2.10;;;;;;;;;;5201577;22;20022;-77
2023/06/06 01:26:22;;;;;;;4.85;2.47;;;;;;;;;;5210143;22;20053;-77
2023/06/06 01:28:43;;;;;;;3.00;2.28;;;;;;;;;;5201573;22;20031;-78
2023/06/06 01:31:03;;;;;;;2.47;2.38;;;;;;;;;;5178916;22;20024;-77
2023/06/06 01:33:36;;;;;;;2.55;2.45;;;;;;;;;;5178918;22;20069;-78
2023/06/06 01:35:56;;;;;;;2.78;2.58;;;;;;;;;;5178780;22;20023;-78
2023/06/06 01:38:20;;;;;;;1.80;1.80;;;;;;;;;;5201545;22;20038;-78
2023/06/06 01:40:41;;;;;;;4.60;2.15;;;;;;;;;;5178744;22;20027;-77
2023/06/06 01:43:03;;;;;;;2.58;2.35;;;;;;;;;;5201532;22;20249;-77
2023/06/06 01:45:25;;;;;;;2.17;2.05;;;;;;;;;;5178766;22;20024;-77
2023/06/06 01:47:45;;;;;;;2.87;2.70;;;;;;;;;;5187214;22;20316;-78
2023/06/06 01:50:07;;;;;;;3.40;2.00;;;;;;;;;;5210120;22;20241;-77
2023/06/06 01:52:28;;;;;;;9.95;2.85;;;;;;;;;;5201489;22;20027;-78
2023/06/06 01:54:48;;;;;;;2.60;2.40;;;;;;;;;;5201450;22;20037;-78
2023/06/06 01:57:09;;;;;;;3.42;2.17;;;;;;;;;;5178766;22;20358;-77
2023/06/06 01:59:29;;;;;;;3.63;2.30;;;;;;;;;;5201510;22;20023;-77
2023/06/06 02:01:50;;;;;;;2.40;2.30;;;;;;;;;;5201404;22;20061;-77
2023/06/06 02:04:10;;;;;;;1.85;1.85;;;;;;;;;;5178723;22;20237;-77
2023/06/06 02:06:32;;;;;;;3.13;2.45;;;;;;;;;;5201434;22;20074;-77
2023/06/06 02:08:52;;;;;;;4.38;3.92;;;;;;;;;;5178709;22;20325;-77
2023/06/06 02:11:13;;;;;;;5.15;2.75;;;;;;;;;;5201503;22;20363;-77
2023/06/06 02:13:33;;;;;;;2.53;2.33;;;;;;;;;;5201411;22;20393;-78
2023/06/06 02:15:53;;;;;;;3.85;2.67;;;;;;;;;;5178632;22;20023;-78
2023/06/06 02:18:13;;;;;;;5.85;2.60;;;;;;;;;;5178685;22;20026;-77
2023/06/06 02:20:33;;;;;;;6.30;2.63;;;;;;;;;;5201513;22;20023;-77
2023/06/06 02:22:53;;;;;;;3.80;2.58;;;;;;;;;;5178651;22;20215;-78
2023/06/06 02:25:13;;;;;;;9.25;2.53;;;;;;;;;;5201264;22;20079;-77
2023/06/06 02:27:34;;;;;;;2.40;2.20;;;;;;;;;;5187143;22;20090;-78
2023/06/06 02:29:55;;;;;;;1.98;1.88;;;;;;;;;;5201280;22;20026;-78
2023/06/06 02:32:15;;;;;;;3.63;2.40;;;;;;;;;;5178648;22;20023;-77
2023/06/06 02:34:36;;;;;;;6.35;2.42;;;;;;;;;;5209817;22;20023;-78
2023/06/06 02:36:59;;;;;;;2.22;2.13;;;;;;;;;;5178495;22;20023;-78
2023/06/06 02:39:21;;;;;;;6.95;2.42;;;;;;;;;;5209883;22;20047;-78
2023/06/06 02:41:41;;;;;;;17.67;3.30;;;;;;;;;;5201337;22;20023;-78
2023/06/06 02:44:02;;;;;;;2.58;1.88;;;;;;;;;;5201289;22;20027;-78
2023/06/06 02:46:22;;;;;;;2.65;2.55;;;;;;;;;;5178566;22;20026;-77
2023/06/06 02:48:47;;;;;;;8.27;2.55;;;;;;;;;;5178529;22;20022;-78
2023/06/06 02:51:08;;;;;;;2.25;2.10;;;;;;;;;;5201308;22;20026;-78
2023/06/06 02:53:31;;;;;;;2.13;1.80;;;;;;;;;;5201355;22;20031;-78
2023/06/06 02:55:51;;;;;;;1.92;1.70;;;;;;;;;;5201154;22;20040;-77
2023/06/06 02:58:28;;;;;;;6.53;3.30;;;;;;;;;;5201188;22;20035;-77
2023/06/06 03:00:48;;;;;;;2.63;2.42;;;;;;;;;;5201207;22;20049;-77
2023/06/06 03:03:09;;;;;;;2.60;2.30;;;;;;;;;;5178871;22;20027;-77
2023/06/06 03:05:29;;;;;;;1.83;1.73;;;;;;;;;;5178512;22;20336;-78
2023/06/06 03:07:50;;;;;;;2.42;1.88;;;;;;;;;;5187030;22;20336;-77
2023/06/06 03:10:11;;;;;;;2.10;1.90;;;;;;;;;;5201265;22;20023;-77
2023/06/06 03:12:31;;;;;;;2.58;2.20;;;;;;;;;;5201120;22;20086;-77
2023/06/06 03:14:51;;;;;;;3.75;2.35;;;;;;;;;;5178379;22;20023;-78
2023/06/06 03:17:18;;;;;;;8.68;2.30;;;;;;;;;;5188349;22;20023;-78
2023/06/06 03:19:38;;;;;;;2.42;2.33;;;;;;;;;;5178546;22;20022;-78
2023/06/06 03:21:59;;;;;;;5.47;2.30;;;;;;;;;;5201073;22;20079;-77
2023/06/06 03:24:19;;;;;;;2.38;2.17;;;;;;;;;;5186817;22;20047;-77
2023/06/06 03:26:39;;;;;;;2.35;2.30;;;;;;;;;;5209719;22;20042;-77
2023/06/06 03:29:00;;;;;;;2.25;2.13;;;;;;;;;;5209543;22;20381;-77
2023/06/06 03:31:23;;;;;;;2.17;2.08;;;;;;;;;;5201233;22;20085;-78
2023/06/06 03:33:44;;;;;;;1.98;1.98;;;;;;;;;;5201288;22;20022;-77
2023/06/06 03:36:07;;;;;;;2.20;2.10;;;;;;;;;;5200984;22;20211;-77
2023/06/06 03:38:27;;;;;;;3.63;2.28;;;;;;;;;;5178197;22;20219;-77
2023/06/06 03:40:48;;;;;;;1.80;1.80;;;;;;;;;;5209457;22;20022;-77
2023/06/06 03:43:08;;;;;;;2.33;2.13;;;;;;;;;;5178454;22;20211;-78
2023/06/06 03:45:29;;;;;;;3.38;2.45;;;;;;;;;;5200955;22;20031;-77
2023/06/06 03:47:49;;;;;;;6.88;2.63;;;;;;;;;;5178035;22;20047;-77
2023/06/06 03:50:10;;;;;;;3.67;2.28;;;;;;;;;;5209530;22;20103;-77
2023/06/06 03:52:31;;;;;;;4.78;2.53;;;;;;;;;;5178168;22;20054;-77
2023/06/06 03:54:51;;;;;;;1.80;1.70;;;;;;;;;;5200861;22;20027;-77
2023/06/06 03:57:11;;;;;;;4.40;2.65;;;;;;;;;;5200909;22;20038;-77
2023/06/06 03:59:31;;;;;;;2.30;2.20;;;;;;;;;;5178294;22;20042;-77
2023/06/06 04:01:53;;;;;;;3.42;2.70;;;;;;;;;;5186489;22;20103;-78
2023/06/06 04:04:15;;;;;;;4.32;2.38;;;;;;;;;;5178117;22;20103;-77
2023/06/06 04:06:37;;;;;;;4.32;2.75;;;;;;;;;;5200850;22;20081;-77
2023/06/06 04:08:58;;;;;;;2.55;2.35;;;;;;;;;;5209095;22;20023;-77
2023/06/06 04:11:19;;;;;;;8.02;2.83;;;;;;;;;;5200803;22;20039;-77
2023/06/06 04:13:39;;;;;;;3.28;3.17;;;;;;;;;;5201096;22;20054;-78
2023/06/06 04:16:00;;;;;;;2.28;2.28;;;;;;;;;;5200618;22;20209;-78
2023/06/06 04:18:20;;;;;;;3.30;2.53;;;;;;;;;;5209216;22;20097;-77
2023/06/06 04:20:43;;;;;;;10.18;2.53;;;;;;;;;;5201004;22;20060;-77
2023/06/06 04:23:03;;;;;;;2.70;2.50;;;;;;;;;;5178157;22;20027;-78
2023/06/06 04:25:24;;;;;;;2.20;2.20;;;;;;;;;;5177868;22;20096;-77
2023/06/06 04:27:44;;;;;;;3.45;2.30;;;;;;;;;;5200806;22;20054;-77
2023/06/06 04:30:05;;;;;;;3.28;3.05;;;;;;;;;;5200710;22;20218;-77
2023/06/06 04:32:26;;;;;;;3.10;3.00;;;;;;;;;;5177995;22;20022;-77
2023/06/06 04:34:51;;;;;;;2.72;2.47;;;;;;;;;;5186385;22;20027;-77
2023/06/06 04:37:13;;;;;;;4.45;2.42;;;;;;;;;;5177839;22;20035;-77
2023/06/06 04:39:34;;;;;;;5.15;2.17;;;;;;;;;;5208866;22;20242;-77
2023/06/06 04:41:56;;;;;;;7.68;2.95;;;;;;;;;;5186283;22;20027;-77
2023/06/06 04:44:17;;;;;;;2.72;2.72;;;;;;;;;;5177856;22;20023;-77
2023/06/06 04:46:37;;;;;;;4.57;3.28;;;;;;;;;;5200498;22;20047;-77
2023/06/06 04:49:01;;;;;;;3.20;2.78;;;;;;;;;;5177681;22;20231;-77
2023/06/06 04:51:22;;;;;;;3.33;2.35;;;;;;;;;;5176069;22;20022;-77
2023/06/06 04:53:44;;;;;;;6.53;3.03;;;;;;;;;;5177767;22;20082;-77
2023/06/06 04:56:05;;;;;;;4.10;2.67;;;;;;;;;;5200218;22;20206;-77
2023/06/06 04:58:28;;;;;;;2.75;2.63;;;;;;;;;;5200355;22;20034;-77
2023/06/06 05:00:50;;;;;;;4.00;2.13;;;;;;;;;;5201381;22;20022;-77
2023/06/06 05:03:11;;;;;;;2.95;2.85;;;;;;;;;;5201669;22;20031;-77
2023/06/06 05:05:31;;;;;;;2.58;2.38;;;;;;;;;;5201653;22;20037;-77
2023/06/06 05:07:52;;;;;;;2.92;2.72;;;;;;;;;;5210300;22;20062;-77
2023/06/06 05:10:12;;;;;;;6.88;3.30;;;;;;;;;;5210197;22;20027;-77
2023/06/06 05:12:33;;;;;;;2.65;2.45;;;;;;;;;;5178885;22;20214;-77
2023/06/06 05:14:53;;;;;;;6.43;2.83;;;;;;;;;;5178695;22;20333;-77
2023/06/06 05:17:19;;;;;;;2.28;2.13;;;;;;;;;;5210014;22;20042;-80
2023/06/06 05:19:41;;;;;;;3.20;2.80;;;;;;;;;;5158107;22;20372;-85
2023/06/06 05:22:01;;;;;;;2.90;2.70;;;;;;;;;;5178500;22;20062;-85
2023/06/06 05:24:22;;;;;;;3.15;2.92;;;;;;;;;;5209974;22;20022;-85
2023/06/06 05:26:42;;;;;;;2.63;2.50;;;;;;;;;;5187032;22;20346;-85
2023/06/06 05:29:03;;;;;;;4.43;2.70;;;;;;;;;;5209988;22;20083;-85
2023/06/06 05:31:23;;;;;;;2.50;2.35;;;;;;;;;;5210062;22;20341;-85
2023/06/06 05:33:43;;;;;;;2.85;2.75;;;;;;;;;;5187170;22;20238;-85
2023/06/06 05:36:04;;;;;;;1.90;1.80;;;;;;;;;;5209746;22;20062;-85
2023/06/06 05:38:25;;;;;;;2.92;2.83;;;;;;;;;;5187376;22;20432;-85
2023/06/06 05:40:45;;;;;;;2.60;2.40;;;;;;;;;;5187125;22;20235;-85
2023/06/06 05:43:06;;;;;;;2.70;2.60;;;;;;;;;;5178504;22;20027;-85
2023/06/06 05:45:26;;;;;;;2.60;2.40;;;;;;;;;;5201624;22;20218;-85
2023/06/06 05:47:47;;;;;;;3.33;3.05;;;;;;;;;;5187451;22;20050;-85
2023/06/06 05:50:07;;;;;;;3.33;3.03;;;;;;;;;;5201271;22;20228;-85
2023/06/06 05:52:28;;;;;;;3.03;2.83;;;;;;;;;;5187112;22;20023;-85
2023/06/06 05:54:49;;;;;;;3.53;3.42;;;;;;;;;;5187219;22;20054;-85
2023/06/06 05:57:20;;;;;;;3.42;3.13;;;;;;;;;;5178849;22;20023;-85
2023/06/06 05:59:41;;;;;;;2.33;2.33;;;;;;;;;;5201241;22;20035;-85
2023/06/06 06:02:01;;;;;;;3.42;2.53;;;;;;;;;;5178869;22;20023;-85
2023/06/06 06:04:23;;;;;;;2.90;2.70;;;;;;;;;;5178771;22;20066;-85
2023/06/06 06:06:46;;;;;;;2.53;2.35;;;;;;;;;;5178525;22;20051;-85
2023/06/06 06:09:16;;;;;;;2.40;2.40;;;;;;;;;;5188452;22;20087;-85
2023/06/06 06:11:36;;;;;;;3.85;2.40;;;;;;;;;;5178597;22;20058;-85
2023/06/06 06:13:58;;;;;;;2.28;2.13;;;;;;;;;;5178666;22;20250;-85
2023/06/06 06:16:18;;;;;;;3.05;2.90;;;;;;;;;;5178395;22;20039;-85
2023/06/06 06:18:38;;;;;;;2.75;2.58;;;;;;;;;;5178770;22;20293;-85
2023/06/06 06:20:59;;;;;;;2.70;2.60;;;;;;;;;;5187208;22;20030;-85
2023/06/06 06:23:19;;;;;;;2.88;2.78;;;;;;;;;;5186971;22;20062;-85
2023/06/06 06:25:40;;;;;;;2.67;2.42;;;;;;;;;;5178694;22;20103;-85
2023/06/06 06:28:02;;;;;;;4.50;2.80;;;;;;;;;;5187140;22;20027;-85
2023/06/06 06:30:22;;;;;;;3.03;1.60;;;;;;;;;;5178583;22;20023;-85
2023/06/06 06:32:43;;;;;;;2.17;1.98;;;;;;;;;;5178518;22;20103;-85
2023/06/06 06:35:04;;;;;;;2.25;1.98;;;;;;;;;;5201434;22;20050;-85
2023/06/06 06:37:25;;;;;;;1.70;1.60;;;;;;;;;;5178558;22;20023;-85
2023/06/06 06:39:48;;;;;;;2.15;1.73;;;;;;;;;;5209581;22;20101;-85
2023/06/06 06:42:08;;;;;;;1.50;1.40;;;;;;;;;;5187157;22;20027;-85
2023/06/06 06:44:29;;;;;;;2.50;2.38;;;;;;;;;;5187173;22;20062;-85
2023/06/06 06:46:49;;;;;;;1.45;1.45;;;;;;;;;;5186956;22;20022;-85
2023/06/06 06:49:14;;;;;;;1.40;1.30;;;;;;;;;;5187161;22;20338;-85
2023/06/06 06:51:36;;;;;;;2.88;1.50;;;;;;;;;;5178766;22;20023;-85
2023/06/06 06:53:57;;;;;;;1.15;1.15;;;;;;;;;;5201213;22;20026;-85
2023/06/06 06:56:18;;;;;;;1.90;1.80;;;;;;;;;;5201039;22;20022;-85
2023/06/06 06:58:41;;;;;;;1.55;1.50;;;;;;;;;;5201329;22;20050;-85
2023/06/06 07:01:02;;;;;;;1.50;1.50;;;;;;;;;;5187097;22;20023;-88
2023/06/06 07:03:22;;;;;;;1.30;1.20;;;;;;;;;;5178413;22;20027;-88
2023/06/06 07:05:43;;;;;;;2.63;1.73;;;;;;;;;;5201301;22;20092;-88
2023/06/06 07:08:03;;;;;;;1.30;1.20;;;;;;;;;;5178611;22;20038;-88
2023/06/06 07:10:25;;;;;;;1.88;1.30;;;;;;;;;;5201089;22;20060;-88
2023/06/06 07:12:47;;;;;;;1.10;1.10;;;;;;;;;;5178461;22;20066;-88
2023/06/06 07:15:09;;;;;;;1.75;1.75;;;;;;;;;;5209846;22;20026;-88
2023/06/06 07:17:29;;;;;;;1.30;1.20;;;;;;;;;;5201049;22;20088;-88
2023/06/06 07:19:49;;;;;;;2.22;1.45;;;;;;;;;;5201400;22;20072;-88
2023/06/06 07:22:10;;;;;;;3.45;1.20;;;;;;;;;;5201003;22;20027;-88
2023/06/06 07:24:30;;;;;;;1.63;1.05;;;;;;;;;;5201127;22;20030;-88
2023/06/06 07:26:52;;;;;;;1.05;1.05;;;;;;;;;;5178378;22;20066;-88
2023/06/06 07:29:12;;;;;;;2.58;1.00;;;;;;;;;;5178511;22;20074;-88
2023/06/06 07:31:33;;;;;;;2.55;1.17;;;;;;;;;;5210061;22;20107;-88
2023/06/06 07:33:55;;;;;;;4.65;1.10;;;;;;;;;;5209458;22;20369;-88
2023/06/06 07:36:15;;;;;;;1.20;1.10;;;;;;;;;;5200690;22;20084;-88
2023/06/06 07:38:35;;;;;;;1.52;1.10;;;;;;;;;;5178125;22;20022;-88
2023/06/06 07:40:56;;;;;;;1.08;1.08;;;;;;;;;;5200540;22;20234;-88
2023/06/06 07:43:16;;;;;;;1.00;1.00;;;;;;;;;;5178014;22;20023;-88
2023/06/06 07:46:19;;;;;;;1.10;1.00;;;;;;;;;;5209380;22;20096;-88
2023/06/06 07:48:39;;;;;;;1.00;1.00;;;;;;;;;;5200984;22;20316;-88
2023/06/06 07:50:59;;;;;;;1.05;1.05;;;;;;;;;;5178472;22;20023;-88
2023/06/06 07:53:20;;;;;;;1.00;1.00;;;;;;;;;;5186429;22;20131;-88
2023/06/06 07:55:41;;;;;;;2.60;1.10;;;;;;;;;;5200808;22;20105;-88
2023/06/06 07:58:01;;;;;;;1.67;1.00;;;;;;;;;;5209460;22;20380;-88
2023/06/06 08:00:22;;;;;;;1.65;0.90;;;;;;;;;;5178159;22;20046;-88
2023/06/06 08:02:42;;;;;;;0.98;0.82;;;;;;;;;;5186516;22;20042;-88
2023/06/06 08:05:03;;;;;;;1.88;1.00;;;;;;;;;;5178233;22;20333;-88
2023/06/06 08:07:24;;;;;;;0.95;0.95;;;;;;;;;;5176747;22;20031;-88
2023/06/06 08:09:45;;;;;;;0.90;0.90;;;;;;;;;;5177858;22;20078;-88
2023/06/06 08:12:06;;;;;;;0.93;0.90;;;;;;;;;;5186630;22;20070;-88
2023/06/06 08:14:26;;;;;;;1.25;1.15;;;;;;;;;;5209504;22;20023;-90
2023/06/06 08:16:46;;;;;;;0.90;0.90;;;;;;;;;;5177660;22;20023;-92
2023/06/06 08:19:06;;;;;;;0.90;0.90;;;;;;;;;;5178026;22;20350;-92
2023/06/06 08:21:27;;;;;;;1.40;0.85;;;;;;;;;;5200881;22;20333;-91
2023/06/06 08:23:47;;;;;;;1.05;0.90;;;;;;;;;;5186339;22;20022;-91
2023/06/06 08:26:07;;;;;;;1.13;0.90;;;;;;;;;;5186430;22;20078;-91
2023/06/06 08:28:28;;;;;;;1.10;0.80;;;;;;;;;;5178169;22;20357;-92
2023/06/06 08:30:48;;;;;;;3.40;0.90;;;;;;;;;;5177876;22;20023;-92
2023/06/06 08:33:09;;;;;;;0.90;0.90;;;;;;;;;;5209097;22;20213;-92
2023/06/06 08:35:29;;;;;;;0.80;0.80;;;;;;;;;;5179047;22;20022;-92
2023/06/06 08:37:50;;;;;;;0.90;0.90;;;;;;;;;;5187523;22;20066;-92
2023/06/06 08:40:11;;;;;;;1.10;0.90;;;;;;;;;;5201648;22;20021;-92
2023/06/06 08:42:32;;;;;;;1.25;0.80;;;;;;;;;;5210439;22;20041;-92
2023/06/06 08:44:53;;;;;;;0.85;0.85;;;;;;;;;;5201532;22;20057;-92
2023/06/06 08:47:13;;;;;;;0.80;0.80;;;;;;;;;;5178852;22;20290;-92
2023/06/06 08:49:37;;;;;;;0.85;0.85;;;;;;;;;;5178650;22;20119;-92
2023/06/06 08:51:59;;;;;;;1.00;0.90;;;;;;;;;;5187553;22;20023;-92
2023/06/06 08:54:19;;;;;;;1.30;1.17;;;;;;;;;;5187418;22;20345;-92
2023/06/06 08:56:44;;;;;;;1.45;0.88;;;;;;;;;;5210223;22;20061;-92
2023/06/06 08:59:04;;;;;;;1.35;0.80;;;;;;;;;;5201917;22;20035;-91
2023/06/06 09:01:25;;;;;;;1.50;1.50;;;;;;;;;;5187372;22;20071;-92
2023/06/06 09:03:46;;;;;;;3.05;0.90;;;;;;;;;;5201569;22;20026;-93
2023/06/06 09:06:06;;;;;;;0.80;0.80;;;;;;;;;;5179053;22;20084;-93
2023/06/06 09:08:27;;;;;;;1.52;0.95;;;;;;;;;;5178988;22;20058;-92
2023/06/06 09:10:47;;;;;;;1.25;0.80;;;;;;;;;;5178806;22;20022;-92
2023/06/06 09:13:08;;;;;;;1.35;1.10;;;;;;;;;;5187424;22;20031;-92
2023/06/06 09:15:29;;;;;;;2.75;0.80;;;;;;;;;;5178942;22;20027;-91
2023/06/06 09:17:53;;;;;;;1.83;0.80;;;;;;;;;;5187298;22;20074;-92
2023/06/06 09:20:17;;;;;;;0.70;0.70;;;;;;;;;;5179061;22;20023;-91
2023/06/06 09:22:39;;;;;;;0.80;0.80;;;;;;;;;;5201721;22;20027;-93
2023/06/06 09:25:00;;;;;;;1.92;0.80;;;;;;;;;;5178908;22;20070;-92
2023/06/06 09:27:30;;;;;;;0.80;0.80;;;;;;;;;;5178955;22;20038;-92
2023/06/06 09:29:50;;;;;;;0.75;0.75;;;;;;;;;;5178944;22;20058;-92
2023/06/06 09:32:11;;;;;;;0.80;0.80;;;;;;;;;;5187381;22;20038;-92
2023/06/06 09:34:32;;;;;;;1.55;0.88;;;;;;;;;;5178870;22;20027;-91
2023/06/06 09:36:53;;;;;;;1.38;0.77;;;;;;;;;;5201505;22;20023;-91
2023/06/06 09:39:14;;;;;;;0.80;0.80;;;;;;;;;;5201698;22;20034;-92
2023/06/06 09:41:45;;;;;;;0.80;0.80;;;;;;;;;;5178942;22;20031;-92
2023/06/06 09:44:06;;;;;;;1.77;0.80;;;;;;;;;;5209912;22;20215;-92
2023/06/06 09:46:26;;;;;;;0.73;0.70;;;;;;;;;;5179015;22;20074;-92
2023/06/06 09:48:56;;;;;;;1.55;0.82;;;;;;;;;;5179011;22;20023;-93
2023/06/06 09:51:17;;;;;;;0.70;0.70;;;;;;;;;;5178797;22;20266;-92
2023/06/06 09:53:37;;;;;;;0.70;0.70;;;;;;;;;;5201686;22;20050;-94
2023/06/06 09:56:02;;;;;;;0.90;0.90;;;;;;;;;;5201620;22;20022;-92
2023/06/06 09:58:23;;;;;;;2.15;0.80;;;;;;;;;;5187199;22;20083;-92
2023/06/06 10:00:45;;;;;;;0.70;0.70;;;;;;;;;;5178839;22;20080;-93
2023/06/06 10:03:06;;;;;;;0.70;0.70;;;;;;;;;;5178778;22;20219;-92
2023/06/06 10:05:27;;;;;;;0.75;0.75;;;;;;;;;;5178965;22;20024;-92
2023/06/06 10:07:48;;;;;;;0.70;0.70;;;;;;;;;;5178718;22;20022;-92
2023/06/06 10:10:13;;;;;;;1.38;0.70;;;;;;;;;;5187049;22;20027;-93
2023/06/06 10:12:35;;;;;;;0.80;0.80;;;;;;;;;;5201439;22;20030;-93
2023/06/06 10:14:56;;;;;;;0.77;0.77;;;;;;;;;;5201602;22;20025;-92
2023/06/06 10:17:17;;;;;;;0.60;0.60;;;;;;;;;;5201347;22;20218;-93
2023/06/06 10:19:38;;;;;;;1.38;0.70;;;;;;;;;;5178759;22;20058;-93
2023/06/06 10:22:01;;;;;;;0.70;0.70;;;;;;;;;;5209989;22;20348;-92
2023/06/06 10:24:21;;;;;;;0.73;0.70;;;;;;;;;;5178656;22;20055;-93
2023/06/06 10:26:47;;;;;;;0.90;0.70;;;;;;;;;;5178645;22;20027;-92
2023/06/06 10:29:07;;;;;;;0.70;0.70;;;;;;;;;;5187128;22;20338;-92
2023/06/06 10:31:51;;;;;;;0.77;0.77;;;;;;;;;;5187152;22;20042;-93
2023/06/06 10:34:16;;;;;;;1.30;0.70;;;;;;;;;;5201530;22;20066;-94
2023/06/06 10:36:43;;;;;;;0.68;0.60;;;;;;;;;;5178697;22;20027;-94
2023/06/06 10:39:19;;;;;;;1.58;0.70;;;;;;;;;;5187257;22;20023;-93
2023/06/06 10:41:49;;;;;;;0.60;0.60;;;;;;;;;;5201418;22;20034;-93
2023/06/06 10:44:09;;;;;;;1.55;1.25;;;;;;;;;;5187188;22;20330;-92
2023/06/06 10:46:30;;;;;;;0.70;0.70;;;;;;;;;;5201435;22;20253;-93
2023/06/06 10:48:58;;;;;;;0.63;0.63;;;;;;;;;;5201296;22;20214;-92
2023/06/06 10:51:31;;;;;;;0.60;0.60;;;;;;;;;;5201334;22;20022;-92
2023/06/06 10:54:12;;;;;;;0.73;0.60;;;;;;;;;;5178949;22;20027;-91
2023/06/06 10:56:32;;;;;;;1.55;0.70;;;;;;;;;;5186934;22;20096;-92
2023/06/06 10:58:52;;;;;;;0.70;0.70;;;;;;;;;;5178088;22;20051;-93
2023/06/06 11:01:15;;;;;;;4.40;0.80;;;;;;;;;;5201260;22;20042;-94
2023/06/06 11:03:37;;;;;;;1.17;0.80;;;;;;;;;;5178625;22;20023;-93
2023/06/06 11:05:57;;;;;;;1.63;0.90;;;;;;;;;;5187171;22;20042;-93
2023/06/06 11:08:18;;;;;;;0.80;0.80;;;;;;;;;;5209844;22;20022;-94
2023/06/06 11:10:48;;;;;;;0.80;0.80;;;;;;;;;;5178544;22;20027;-93
2023/06/06 11:13:25;;;;;;;1.88;0.80;;;;;;;;;;5186993;22;20051;-92
2023/06/06 11:15:55;;;;;;;1.77;1.20;;;;;;;;;;5187240;22;20107;-94
2023/06/06 11:18:35;;;;;;;2.83;0.90;;;;;;;;;;5179244;22;20280;-96
2023/06/06 11:20:58;;;;;;;3.15;1.05;;;;;;;;;;5164204;22;20086;-94
2023/06/06 11:23:20;;;;;;;2.22;1.05;;;;;;;;;;5187154;22;20062;-96
2023/06/06 11:25:40;;;;;;;1.10;1.10;;;;;;;;;;5187428;22;20062;-95
2023/06/06 11:28:01;;;;;;;1.00;1.00;;;;;;;;;;5187193;22;20066;-94
2023/06/06 11:30:24;;;;;;;2.90;1.13;;;;;;;;;;5187114;22;20082;-94
2023/06/06 11:32:47;;;;;;;1.10;1.10;;;;;;;;;;5187174;22;20023;-95
2023/06/06 11:35:08;;;;;;;1.02;1.02;;;;;;;;;;5178807;22;20026;-94
2023/06/06 11:37:32;;;;;;;1.42;1.08;;;;;;;;;;5187214;22;20050;-94
2023/06/06 11:39:52;;;;;;;2.67;1.10;;;;;;;;;;5201497;22;20058;-94
2023/06/06 11:42:17;;;;;;;1.00;1.00;;;;;;;;;;5187223;22;20027;-95
2023/06/06 11:44:37;;;;;;;1.25;1.00;;;;;;;;;;5209975;22;20070;-95
2023/06/06 11:46:58;;;;;;;1.13;1.13;;;;;;;;;;5186887;22;20078;-95
2023/06/06 11:49:19;;;;;;;1.00;1.00;;;;;;;;;;5201223;22;20035;-94
2023/06/06 11:51:39;;;;;;;1.10;1.10;;;;;;;;;;5187010;22;20023;-94
2023/06/06 11:54:10;;;;;;;1.10;1.10;;;;;;;;;;5178408;22;20027;-94
2023/06/06 11:56:30;;;;;;;1.42;0.98;;;;;;;;;;5186914;22;20093;-94
2023/06/06 11:58:50;;;;;;;1.90;0.90;;;;;;;;;;5209534;22;20061;-94
2023/06/06 12:01:11;;;;;;;1.05;1.00;;;;;;;;;;5186818;22;20288;-94
2023/06/06 12:03:33;;;;;;;1.10;1.10;;;;;;;;;;5209448;22;20027;-94
2023/06/06 12:06:06;;;;;;;1.00;1.00;;;;;;;;;;5178398;22;20023;-94
2023/06/06 12:08:27;;;;;;;0.90;0.90;;;;;;;;;;5186624;22;20024;-94
2023/06/06 12:10:48;;;;;;;1.60;0.88;;;;;;;;;;5210557;22;20023;-94
2023/06/06 12:13:10;;;;;;;;;;;;;;;;;;5180206;22;20026;-93
2023/06/06 12:15:46;;;;;;;0.90;0.90;;;;;;;;;;5179324;22;19961;-94
2023/06/06 12:18:06;;;;;;;1.00;1.00;;;;;;;;;;5187745;22;20031;-94
2023/06/06 12:20:27;;;;;;;0.73;0.73;;;;;;;;;;5187917;22;20083;-93
2023/06/06 12:22:49;;;;;;;0.80;0.80;;;;;;;;;;5187849;22;20026;-94
2023/06/06 12:25:09;;;;;;;2.17;1.17;;;;;;;;;;5179311;22;20023;-94
2023/06/06 12:27:33;;;;;;;0.80;0.80;;;;;;;;;;5187780;22;20062;-94
2023/06/06 12:29:55;;;;;;;1.42;0.70;;;;;;;;;;5202031;22;20026;-94
2023/06/06 12:32:17;;;;;;;1.20;0.70;;;;;;;;;;5179213;22;20050;-94
2023/06/06 12:34:43;;;;;;;0.70;0.70;;;;;;;;;;5201999;22;20027;-94
2023/06/06 12:37:03;;;;;;;0.70;0.70;;;;;;;;;;5201943;22;20023;-94
2023/06/06 12:39:24;;;;;;;1.45;0.70;;;;;;;;;;5187559;22;20353;-95
2023/06/06 12:41:44;;;;;;;0.80;0.80;;;;;;;;;;5187767;22;20023;-94
2023/06/06 12:44:07;;;;;;;0.80;0.80;;;;;;;;;;5187731;22;20046;-94
2023/06/06 12:46:27;;;;;;;1.05;0.80;;;;;;;;;;5187653;22;20258;-94
2023/06/06 12:48:47;;;;;;;1.30;0.80;;;;;;;;;;5187836;22;20051;-95
2023/06/06 12:51:11;;;;;;;1.00;0.80;;;;;;;;;;5187877;22;20062;-94
2023/06/06 12:53:32;;;;;;;0.90;0.90;;;;;;;;;;5188018;22;20050;-95
2023/06/06 12:55:54;;;;;;;2.15;1.00;;;;;;;;;;5188275;22;20023;-93
2023/06/06 12:58:17;;;;;;;1.08;0.90;;;;;;;;;;5187744;22;20039;-94
2023/06/06 13:00:38;;;;;;;;;;;;;;;;;;5210912;22;20063;-93
2023/06/06 13:02:58;;;;;;;0.93;0.88;;;;;;;;;;5187428;22;19918;-94
2023/06/06 13:05:19;;;;;;;1.20;0.80;;;;;;;;;;5187664;22;20074;-95
2023/06/06 13:07:39;;;;;;;0.80;0.80;;;;;;;;;;5187791;22;20073;-94
2023/06/06 13:10:01;;;;;;;2.25;0.75;;;;;;;;;;5179220;22;20027;-95
2023/06/06 13:12:22;;;;;;;0.70;0.70;;;;;;;;;;5210492;22;20211;-95
2023/06/06 13:14:42;;;;;;;0.80;0.80;;;;;;;;;;5179332;22;20026;-94
2023/06/06 13:17:03;;;;;;;0.80;0.80;;;;;;;;;;5187495;22;20046;-94
2023/06/06 13:19:33;;;;;;;1.13;1.02;;;;;;;;;;5189692;22;20026;-95
2023/06/06 13:21:54;;;;;;;0.80;0.80;;;;;;;;;;5187063;22;20079;-95
2023/06/06 13:24:14;;;;;;;0.80;0.80;;;;;;;;;;5187422;22;20103;-95
2023/06/06 13:26:35;;;;;;;1.35;0.80;;;;;;;;;;5209960;22;20234;-95
2023/06/06 13:28:55;;;;;;;0.80;0.80;;;;;;;;;;5187393;22;20023;-94
2023/06/06 13:31:16;;;;;;;0.70;0.70;;;;;;;;;;5179172;22;20034;-94
2023/06/06 13:33:37;;;;;;;0.90;0.70;;;;;;;;;;5187424;22;20031;-94
2023/06/06 13:35:57;;;;;;;1.38;0.80;;;;;;;;;;5187254;22;20331;-93
2023/06/06 13:38:18;;;;;;;1.40;0.70;;;;;;;;;;5187539;22;20377;-93
2023/06/06 13:40:39;;;;;;;0.70;0.70;;;;;;;;;;5178845;22;20334;-94
2023/06/06 13:42:59;;;;;;;0.65;0.65;;;;;;;;;;5178850;22;20073;-94
2023/06/06 13:45:20;;;;;;;0.70;0.70;;;;;;;;;;5178829;22;20027;-94
2023/06/06 13:47:40;;;;;;;0.68;0.68;;;;;;;;;;5178896;22;20039;-94
2023/06/06 13:50:01;;;;;;;0.70;0.70;;;;;;;;;;5178779;22;20047;-94
2023/06/06 13:52:21;;;;;;;0.70;0.70;;;;;;;;;;5187460;22;20227;-94
2023/06/06 13:54:41;;;;;;;1.25;1.00;;;;;;;;;;5178969;22;20273;-94
2023/06/06 13:57:02;;;;;;;0.70;0.70;;;;;;;;;;5187163;22;20055;-94
2023/06/06 13:59:23;;;;;;;0.70;0.70;;;;;;;;;;5178917;22;20131;-95
2023/06/06 14:01:46;;;;;;;0.73;0.73;;;;;;;;;;5187457;22;20027;-93
2023/06/06 14:04:07;;;;;;;0.82;0.70;;;;;;;;;;5178811;22;20023;-94
2023/06/06 14:06:27;;;;;;;0.70;0.70;;;;;;;;;;5187396;22;20214;-93
2023/06/06 14:08:48;;;;;;;0.70;0.70;;;;;;;;;;5187604;22;20084;-93
2023/06/06 14:11:10;;;;;;;0.80;0.80;;;;;;;;;;5201461;22;20263;-93